Alameda, CA (94501)

3:53 AM PST on December 05, 2016 (GMT -0800)
Encinal & Lafayette | | Change Station

Elev 15 ft 37.77 °N, 122.26 °W | Updated 3 seconds ago

Fog
Fog
50.7 °F
Feels Like 50.7 °F
N
2.3
Wind Variable Wind from South
Gusts 0.0 mph

Today
High -- | Low -- °F
--% Chance of Precip.
Yesterday
High -- | Low -- °F
Precip. -- in
Pressure 30.11 in
Visibility 0.2 miles
Clouds Overcast 200 ft
Dew Point 48 °F
Humidity 91%
Rainfall 0.00 in
Snow Depth Not available.
7:09 AM 4:49 PM
Waxing Crescent, 31% visible
METAR KOAK 051053Z 00000KT 1/4SM FG OVC002 11/11 A3011 RMK AO2 SFC VIS 1/2 SLP196 T01110106
Pressure 30.11 in
Visibility 0.2 miles
Clouds Overcast 200 ft
Dew Point 48 °F
Humidity 91%
Rainfall 0.00 in
Snow Depth Not available.
7:09 AM 4:49 PM
Waxing Crescent, 31% visible
METAR KOAK 051053Z 00000KT 1/4SM FG OVC002 11/11 A3011 RMK AO2 SFC VIS 1/2 SLP196 T01110106

10-Day Weather Forecast

Almanac

Astronomy

Dec. 05, 2016 Rise Set
Actual Time
Civil Twilight
Nautical Twilight
Astronomical Twilight
Moon
Length of Visible Light
Length of Day
Tomorrow will be .
, % of the Moon is Illuminated

Today's Extremes

State Highs State Lows

Community

WunderPhotos

Upload Photos

1,955,777 photos uploaded!

WunderBlog® & News

Nearby

Air Quality

  Air Quality AQ Index Pollutant
Not available.

Snow Depth

Station Depth Elevation

Earthquake Activity

City Distance Mag. Time & Date
Minimum magnitude displayed is 2.5.

Coastal Water Temperatures

Place Temperature

Stations

Nearby Weather Stations

Station Location Temp. Windchill Dew Point Humidity Wind Precip. Elev Updated Type
                   

Watches & Warnings

There are currently no watches in effect.